createdAt,value
2022-10-09T00:01:31.312Z,4.77
2022-10-09T00:04:03.389Z,4.60
2022-10-09T00:06:35.332Z,4.77
2022-10-09T00:09:07.015Z,4.30
2022-10-09T00:11:38.719Z,4.40
2022-10-09T00:14:10.462Z,4.77
2022-10-09T00:16:42.204Z,5.20
2022-10-09T00:19:13.949Z,5.00
2022-10-09T00:21:45.612Z,5.27
2022-10-09T00:24:17.347Z,5.45
2022-10-09T00:26:49.088Z,6.33
2022-10-09T00:29:20.783Z,7.70
2022-10-09T00:31:52.432Z,6.10
2022-10-09T00:34:24.259Z,5.83
2022-10-09T00:36:55.917Z,6.17
2022-10-09T00:39:28.759Z,6.17
2022-10-09T00:42:01.745Z,6.60
2022-10-09T00:44:51.579Z,7.40
2022-10-09T00:47:48.745Z,7.83
2022-10-09T00:50:24.126Z,6.97
2022-10-09T00:53:00.227Z,8.23
2022-10-09T00:55:35.586Z,6.83
2022-10-09T00:58:07.603Z,8.60
2022-10-09T01:00:40.632Z,8.07
2022-10-09T01:03:12.608Z,7.77
2022-10-09T01:06:08.941Z,8.10
2022-10-09T01:08:50.893Z,8.97
2022-10-09T01:11:28.631Z,10.07
2022-10-09T01:14:26.120Z,9.47
2022-10-09T01:17:09.432Z,8.70
2022-10-09T01:20:11.651Z,8.80
2022-10-09T01:23:03.525Z,8.80
2022-10-09T01:26:10.498Z,9.90
2022-10-09T01:28:50.560Z,8.87
2022-10-09T01:31:25.090Z,8.70
2022-10-09T01:33:58.948Z,9.43
2022-10-09T01:36:31.181Z,9.00
2022-10-09T01:39:06.511Z,8.90
2022-10-09T01:41:38.539Z,8.57
2022-10-09T01:44:21.917Z,8.93
2022-10-09T01:46:53.863Z,8.80
2022-10-09T01:49:34.677Z,8.83
2022-10-09T01:52:06.719Z,8.50
2022-10-09T01:54:55.284Z,9.17
2022-10-09T01:57:40.240Z,7.77
2022-10-09T02:00:13.554Z,8.30
2022-10-09T02:02:46.903Z,8.70
2022-10-09T02:05:26.292Z,8.40
2022-10-09T02:07:58.902Z,7.80
2022-10-09T02:10:34.083Z,8.13
2022-10-09T02:13:05.932Z,8.20
2022-10-09T02:15:46.573Z,8.40
2022-10-09T02:18:45.393Z,8.23
2022-10-09T02:21:23.378Z,7.87
2022-10-09T02:23:57.881Z,7.90
2022-10-09T02:26:29.661Z,7.43
2022-10-09T02:29:01.623Z,8.13
2022-10-09T02:31:37.989Z,7.07
2022-10-09T02:34:19.523Z,8.53
2022-10-09T02:36:51.243Z,6.87
2022-10-09T02:39:23.030Z,7.93
2022-10-09T02:41:54.811Z,7.50
2022-10-09T02:44:26.784Z,8.63
2022-10-09T02:46:59.679Z,7.70
2022-10-09T02:49:31.327Z,8.30
2022-10-09T02:52:04.314Z,8.47
2022-10-09T02:54:36.072Z,8.20
2022-10-09T02:57:09.739Z,8.30
2022-10-09T02:59:41.659Z,8.10
2022-10-09T03:02:13.756Z,7.40
2022-10-09T03:04:45.735Z,8.13
2022-10-09T03:07:17.412Z,8.00
2022-10-09T03:09:49.151Z,9.50
2022-10-09T03:12:22.141Z,9.23
2022-10-09T03:14:54.061Z,8.50
2022-10-09T03:17:25.800Z,7.50
2022-10-09T03:19:57.439Z,8.10
2022-10-09T03:22:29.266Z,8.97
2022-10-09T03:25:00.945Z,8.60
2022-10-09T03:27:32.646Z,9.60
2022-10-09T03:30:04.900Z,8.10
2022-10-09T03:32:36.701Z,9.20
2022-10-09T03:35:09.190Z,8.27
2022-10-09T03:37:40.972Z,8.70
2022-10-09T03:40:12.639Z,9.23
2022-10-09T03:42:44.359Z,7.60
2022-10-09T03:45:17.129Z,8.23
2022-10-09T03:47:48.817Z,8.17
2022-10-09T03:50:20.507Z,7.73
2022-10-09T03:52:52.353Z,8.53
2022-10-09T03:55:24.162Z,7.77
2022-10-09T03:57:57.180Z,8.27
2022-10-09T04:00:29.000Z,8.00
2022-10-09T04:03:01.839Z,8.00
2022-10-09T04:05:34.852Z,8.13
2022-10-09T04:08:06.585Z,8.27
2022-10-09T04:10:38.431Z,7.47
2022-10-09T04:13:10.235Z,7.83
2022-10-09T04:15:50.863Z,8.33
2022-10-09T04:18:23.038Z,7.53
2022-10-09T04:20:57.410Z,7.30
2022-10-09T04:23:30.282Z,8.67
2022-10-09T04:26:02.157Z,7.45
2022-10-09T04:28:33.972Z,8.13
2022-10-09T04:31:05.824Z,7.47
2022-10-09T04:33:37.511Z,8.17
2022-10-09T04:36:09.366Z,8.30
2022-10-09T04:38:41.166Z,7.40
2022-10-09T04:41:13.246Z,9.17
2022-10-09T04:43:44.927Z,6.43
2022-10-09T04:46:16.704Z,8.27
2022-10-09T04:48:48.735Z,7.97
2022-10-09T04:51:20.539Z,7.63
2022-10-09T04:53:52.334Z,6.53
2022-10-09T04:56:25.179Z,7.83
2022-10-09T04:58:56.989Z,7.37
2022-10-09T05:01:31.906Z,8.67
2022-10-09T05:04:06.176Z,8.37
2022-10-09T05:06:37.839Z,8.10
2022-10-09T05:09:09.522Z,8.37
2022-10-09T05:11:42.841Z,7.53
2022-10-09T05:14:14.813Z,8.30
2022-10-09T05:17:11.703Z,7.70
2022-10-09T05:19:38.879Z,8.30
2022-10-09T05:22:10.548Z,7.47
2022-10-09T05:24:42.263Z,8.40
2022-10-09T05:27:13.951Z,9.40
2022-10-09T05:29:45.727Z,8.80
2022-10-09T05:32:17.583Z,8.23
2022-10-09T05:34:49.312Z,9.53
2022-10-09T05:37:20.988Z,7.50
2022-10-09T05:39:52.736Z,8.40
2022-10-09T05:42:24.607Z,8.43
2022-10-09T05:44:56.315Z,7.80
2022-10-09T05:47:30.592Z,7.77
2022-10-09T05:50:02.335Z,7.57
2022-10-09T05:52:35.807Z,9.00
2022-10-09T05:55:07.857Z,8.57
2022-10-09T05:57:39.526Z,9.10
2022-10-09T06:00:11.919Z,8.37
2022-10-09T06:02:44.628Z,8.50
2022-10-09T06:05:16.630Z,7.60
2022-10-09T06:07:48.537Z,7.77
2022-10-09T06:10:20.322Z,8.50
2022-10-09T06:12:52.197Z,8.55
2022-10-09T06:15:23.963Z,7.83
2022-10-09T06:17:55.670Z,6.90
2022-10-09T06:20:27.364Z,8.40
2022-10-09T06:23:00.125Z,8.50
2022-10-09T06:25:31.955Z,7.60
2022-10-09T06:28:03.651Z,8.80
2022-10-09T06:30:38.785Z,7.93
2022-10-09T06:33:10.686Z,8.27
2022-10-09T06:35:42.780Z,8.40
2022-10-09T06:38:15.408Z,9.00
2022-10-09T06:40:47.078Z,7.60
2022-10-09T06:43:18.956Z,9.52
2022-10-09T06:45:50.710Z,8.13
2022-10-09T06:48:22.459Z,8.57
2022-10-09T06:50:54.172Z,8.10
2022-10-09T06:53:25.954Z,7.50
2022-10-09T06:55:58.964Z,8.27
2022-10-09T06:58:30.911Z,8.50
2022-10-09T07:01:03.860Z,8.37
2022-10-09T07:03:37.196Z,8.10
2022-10-09T07:06:19.065Z,8.50
2022-10-09T07:08:53.115Z,8.00
2022-10-09T07:11:27.878Z,9.00
2022-10-09T07:14:01.755Z,8.00
2022-10-09T07:16:39.571Z,7.97
2022-10-09T07:19:12.574Z,7.10
2022-10-09T07:21:46.103Z,6.87
2022-10-09T07:24:20.291Z,7.23
2022-10-09T07:26:52.063Z,7.07
2022-10-09T07:29:23.992Z,7.83
2022-10-09T07:31:55.731Z,7.00
2022-10-09T07:34:27.655Z,8.00
2022-10-09T07:37:00.445Z,7.35
2022-10-09T07:39:32.191Z,7.33
2022-10-09T07:42:04.273Z,7.37
2022-10-09T07:44:35.966Z,6.60
2022-10-09T07:47:07.756Z,8.63
2022-10-09T07:49:40.511Z,7.10
2022-10-09T07:52:12.263Z,7.10
2022-10-09T07:54:43.993Z,6.30
2022-10-09T07:57:15.684Z,7.00
2022-10-09T07:59:47.355Z,6.93
2022-10-09T08:02:19.121Z,8.83
2022-10-09T08:04:50.892Z,6.70
2022-10-09T08:07:22.565Z,6.10
2022-10-09T08:09:54.262Z,6.57
2022-10-09T08:12:25.951Z,6.47
2022-10-09T08:14:59.788Z,6.63
2022-10-09T08:17:31.534Z,6.47
2022-10-09T08:20:03.395Z,6.50
2022-10-09T08:22:35.092Z,6.00
2022-10-09T08:25:07.125Z,6.53
2022-10-09T08:27:38.816Z,5.80
2022-10-09T08:30:11.922Z,5.85
2022-10-09T08:32:43.693Z,6.17
2022-10-09T08:35:15.415Z,7.50
2022-10-09T08:37:47.135Z,5.07
2022-10-09T08:40:33.404Z,5.20
2022-10-09T08:43:10.755Z,5.03
2022-10-09T08:45:47.181Z,5.43
2022-10-09T08:48:23.789Z,5.30
2022-10-09T08:50:58.609Z,5.67
2022-10-09T08:53:42.496Z,5.20
2022-10-09T08:56:15.699Z,5.60
2022-10-09T08:58:47.469Z,6.17
2022-10-09T09:01:42.095Z,6.20
2022-10-09T09:04:39.524Z,5.97
2022-10-09T09:07:37.920Z,5.90
2022-10-09T09:10:30.252Z,5.47
2022-10-09T09:13:14.211Z,4.80
2022-10-09T09:16:01.292Z,4.83
2022-10-09T09:18:45.171Z,5.07
2022-10-09T09:21:24.775Z,5.33
2022-10-09T09:24:01.034Z,5.20
2022-10-09T09:26:32.709Z,4.90
2022-10-09T09:29:05.487Z,5.23
2022-10-09T09:31:37.962Z,4.33
2022-10-09T09:34:34.860Z,4.73
2022-10-09T09:37:09.893Z,4.77
2022-10-09T09:42:34.060Z,4.27
2022-10-09T09:45:13.535Z,4.30
2022-10-09T09:48:09.431Z,4.00
2022-10-09T09:50:50.530Z,3.93
2022-10-09T09:53:32.699Z,3.57
2022-10-09T09:56:06.326Z,4.00
2022-10-09T09:58:47.544Z,3.83
2022-10-09T10:01:29.008Z,3.67
2022-10-09T10:04:03.967Z,4.50
2022-10-09T10:06:45.738Z,3.30
2022-10-09T10:09:19.480Z,3.37
2022-10-09T10:11:58.354Z,4.07
2022-10-09T10:14:31.498Z,3.00
2022-10-09T10:17:03.303Z,4.23
2022-10-09T10:19:35.452Z,3.50
2022-10-09T10:22:25.008Z,3.50
2022-10-09T10:24:58.888Z,3.07
2022-10-09T10:27:38.450Z,3.60
2022-10-09T10:30:15.803Z,2.80
2022-10-09T10:33:05.527Z,3.23
2022-10-09T10:35:41.139Z,3.38
2022-10-09T10:38:26.742Z,2.90
2022-10-09T10:41:22.886Z,2.60
2022-10-09T10:44:22.989Z,2.60
2022-10-09T10:47:02.407Z,2.60
2022-10-09T10:49:34.233Z,2.70
2022-10-09T10:52:49.471Z,2.70
2022-10-09T10:56:00.216Z,3.00
2022-10-09T10:58:57.853Z,3.03
2022-10-09T11:01:47.722Z,2.60
2022-10-09T11:04:31.499Z,2.90
2022-10-09T11:07:24.394Z,2.63
2022-10-09T11:10:40.598Z,2.60
2022-10-09T11:13:21.279Z,2.70
2022-10-09T11:16:07.987Z,2.97
2022-10-09T11:18:55.083Z,2.40
2022-10-09T11:21:58.721Z,2.80
2022-10-09T11:24:44.065Z,2.87
2022-10-09T11:27:53.000Z,2.53
2022-10-09T11:30:28.555Z,2.50
2022-10-09T11:33:16.869Z,2.40
2022-10-09T11:36:02.803Z,2.23
2022-10-09T11:38:42.409Z,3.00
2022-10-09T11:41:14.841Z,2.50
2022-10-09T11:43:51.717Z,2.90
2022-10-09T11:46:50.040Z,3.03
2022-10-09T11:49:37.866Z,2.63
2022-10-09T11:52:26.362Z,2.40
2022-10-09T11:55:25.151Z,3.07
2022-10-09T11:58:09.038Z,3.43
2022-10-09T12:00:42.810Z,2.53
2022-10-09T12:03:33.354Z,2.80
2022-10-09T12:06:09.426Z,2.20
2022-10-09T12:09:07.256Z,2.50
2022-10-09T12:11:40.043Z,2.67
2022-10-09T12:14:23.884Z,2.63
2022-10-09T12:16:57.253Z,2.70
2022-10-09T12:19:36.419Z,2.40
2022-10-09T12:22:21.644Z,2.40
2022-10-09T12:24:57.455Z,2.27
2022-10-09T12:27:39.077Z,2.30
2022-10-09T12:30:14.150Z,2.07
2022-10-09T12:33:14.160Z,2.43
2022-10-09T12:35:56.725Z,2.13
2022-10-09T12:38:31.788Z,2.73
2022-10-09T12:41:07.026Z,2.60
2022-10-09T12:43:47.585Z,2.17
2022-10-09T12:46:39.642Z,2.23
2022-10-09T12:49:25.461Z,2.10
2022-10-09T12:52:00.309Z,2.23
2022-10-09T12:54:33.112Z,2.53
2022-10-09T12:57:05.330Z,2.10
2022-10-09T12:59:37.209Z,2.50
2022-10-09T13:02:16.366Z,2.50
2022-10-09T13:04:57.924Z,2.50
2022-10-09T13:07:32.319Z,3.40
2022-10-09T13:10:08.217Z,1.97
2022-10-09T13:12:40.022Z,2.43
2022-10-09T13:15:34.020Z,2.43
2022-10-09T13:18:22.635Z,2.30
2022-10-09T13:21:06.297Z,2.80
2022-10-09T13:23:40.019Z,2.90
2022-10-09T13:26:19.415Z,2.97
2022-10-09T13:28:52.561Z,2.40
2022-10-09T13:31:24.981Z,2.90
2022-10-09T13:33:56.684Z,2.80
2022-10-09T13:36:28.558Z,3.00
2022-10-09T13:39:00.239Z,2.73
2022-10-09T13:41:32.702Z,2.43
2022-10-09T13:44:04.367Z,2.27
2022-10-09T13:46:36.225Z,2.80
2022-10-09T13:49:07.979Z,2.53
2022-10-09T13:51:39.653Z,3.23
2022-10-09T13:54:11.387Z,2.10
2022-10-09T13:56:48.375Z,2.67
2022-10-09T13:59:20.239Z,2.77
2022-10-09T14:01:52.514Z,2.33
2022-10-09T14:04:27.972Z,2.80
2022-10-09T14:06:59.684Z,2.73
2022-10-09T14:09:31.452Z,2.63
2022-10-09T14:12:03.344Z,2.17
2022-10-09T14:14:35.153Z,3.50
2022-10-09T14:17:08.872Z,2.80
2022-10-09T14:19:40.671Z,4.00
2022-10-09T14:22:13.425Z,3.17
2022-10-09T14:24:45.115Z,3.00
2022-10-09T14:27:31.948Z,2.50
2022-10-09T14:30:04.114Z,2.70
2022-10-09T14:32:35.797Z,3.10
2022-10-09T14:35:07.815Z,2.53
2022-10-09T14:37:42.001Z,3.00
2022-10-09T14:40:14.203Z,3.37
2022-10-09T14:42:46.068Z,3.27
2022-10-09T14:45:17.967Z,3.43
2022-10-09T14:47:49.650Z,3.03
2022-10-09T14:50:21.384Z,2.80
2022-10-09T14:52:53.135Z,2.80
2022-10-09T14:55:24.828Z,3.37
2022-10-09T14:57:56.634Z,3.17
2022-10-09T15:00:31.398Z,3.53
2022-10-09T15:03:06.137Z,2.93
2022-10-09T15:05:37.800Z,3.73
2022-10-09T15:08:09.585Z,3.73
2022-10-09T15:10:43.148Z,3.50
2022-10-09T15:13:14.943Z,3.40
2022-10-09T15:15:46.664Z,3.33
2022-10-09T15:18:18.600Z,3.53
2022-10-09T15:20:52.431Z,3.93
2022-10-09T15:23:24.354Z,3.15
2022-10-09T15:25:58.015Z,3.57
2022-10-09T15:28:29.748Z,3.17
2022-10-09T15:31:02.846Z,4.47
2022-10-09T15:33:34.511Z,2.73
2022-10-09T15:36:06.350Z,3.63
2022-10-09T15:38:40.398Z,3.53
2022-10-09T15:41:27.096Z,3.40
2022-10-09T15:44:15.590Z,3.93
2022-10-09T15:46:49.500Z,4.63
2022-10-09T15:49:21.220Z,3.70
2022-10-09T15:51:53.366Z,3.73
2022-10-09T15:54:27.732Z,3.80
2022-10-09T15:57:00.581Z,3.80
2022-10-09T15:59:36.251Z,4.27
2022-10-09T16:02:10.939Z,4.27
2022-10-09T16:04:43.711Z,3.95
2022-10-09T16:07:15.460Z,4.17
2022-10-09T16:09:47.151Z,5.07
2022-10-09T16:12:19.970Z,5.73
2022-10-09T16:14:52.746Z,5.20
2022-10-09T16:17:24.476Z,5.37
2022-10-09T16:19:56.163Z,4.90
2022-10-09T16:22:27.929Z,5.10
2022-10-09T16:24:59.659Z,5.47
2022-10-09T16:27:31.516Z,4.87
2022-10-09T16:30:04.239Z,5.73
2022-10-09T16:32:35.962Z,4.83
2022-10-09T16:35:08.185Z,5.27
2022-10-09T16:37:39.916Z,4.87
2022-10-09T16:40:12.048Z,5.50
2022-10-09T16:42:43.737Z,5.67
2022-10-09T16:45:15.427Z,7.00
2022-10-09T16:47:48.621Z,6.47
2022-10-09T16:50:20.449Z,5.57
2022-10-09T16:52:52.129Z,5.60
2022-10-09T16:55:24.103Z,6.40
2022-10-09T16:57:56.553Z,6.97
2022-10-09T17:00:28.454Z,6.00
2022-10-09T17:03:00.257Z,5.93
2022-10-09T17:05:32.061Z,7.37
2022-10-09T17:08:03.788Z,5.93
2022-10-09T17:10:40.887Z,6.07
2022-10-09T17:13:12.590Z,5.77
2022-10-09T17:15:44.392Z,6.80
2022-10-09T17:18:18.249Z,5.80
2022-10-09T17:20:49.998Z,7.63
2022-10-09T17:23:21.731Z,6.10
2022-10-09T17:25:53.487Z,5.73
2022-10-09T17:28:25.337Z,5.00
2022-10-09T17:31:02.342Z,5.30
2022-10-09T17:33:54.205Z,5.53
2022-10-09T17:36:28.642Z,5.60
2022-10-09T17:39:00.382Z,5.68
2022-10-09T17:41:34.568Z,6.13
2022-10-09T17:44:07.381Z,6.27
2022-10-09T17:46:39.190Z,7.03
2022-10-09T17:49:10.939Z,6.67
2022-10-09T17:51:42.633Z,6.70
2022-10-09T17:54:17.125Z,7.50
2022-10-09T17:56:48.839Z,7.00
2022-10-09T17:59:20.502Z,7.57
2022-10-09T18:01:53.592Z,8.17
2022-10-09T18:04:25.359Z,7.10
2022-10-09T18:06:58.188Z,6.63
2022-10-09T18:09:29.942Z,6.80
2022-10-09T18:12:02.133Z,7.03
2022-10-09T18:14:34.017Z,6.30
2022-10-09T18:17:05.688Z,6.40
2022-10-09T18:19:37.419Z,7.03
2022-10-09T18:22:09.216Z,6.87
2022-10-09T18:24:41.950Z,7.50
2022-10-09T18:27:13.763Z,7.27
2022-10-09T18:29:46.491Z,8.60
2022-10-09T18:32:18.235Z,8.80
2022-10-09T18:34:50.013Z,10.37
2022-10-09T18:37:21.969Z,9.70
2022-10-09T18:39:53.650Z,8.27
2022-10-09T18:42:26.541Z,7.60
2022-10-09T18:45:00.391Z,8.30
2022-10-09T18:47:35.815Z,8.83
2022-10-09T18:50:10.808Z,7.47
2022-10-09T18:52:44.646Z,6.47
2022-10-09T18:55:18.044Z,7.33
2022-10-09T18:57:49.831Z,11.93
2022-10-09T19:00:21.511Z,11.70
2022-10-09T19:02:53.316Z,9.83
2022-10-09T19:05:25.021Z,8.03
2022-10-09T19:07:56.787Z,7.67
2022-10-09T19:10:28.636Z,8.17
2022-10-09T19:13:00.332Z,7.80
2022-10-09T19:15:33.179Z,6.90
2022-10-09T19:18:06.915Z,7.37
2022-10-09T19:20:39.291Z,7.70
2022-10-09T19:23:11.144Z,7.73
2022-10-09T19:25:50.696Z,7.30
2022-10-09T19:28:24.289Z,6.90
2022-10-09T19:30:56.487Z,7.50
2022-10-09T19:33:28.663Z,7.47
2022-10-09T19:36:00.537Z,7.23
2022-10-09T19:38:32.726Z,6.90
2022-10-09T19:41:09.929Z,7.00
2022-10-09T19:43:42.382Z,7.40
2022-10-09T19:46:17.868Z,7.97
2022-10-09T19:48:50.328Z,7.00
2022-10-09T19:51:25.083Z,7.37
2022-10-09T19:53:58.858Z,7.20
2022-10-09T19:56:33.267Z,6.90
2022-10-09T19:59:07.602Z,7.40
2022-10-09T20:01:40.441Z,7.50
2022-10-09T20:04:12.457Z,7.33
2022-10-09T20:06:44.302Z,7.93
2022-10-09T20:09:16.739Z,7.30
2022-10-09T20:11:48.570Z,7.00
2022-10-09T20:14:20.692Z,7.27
2022-10-09T20:16:52.431Z,6.60
2022-10-09T20:19:25.008Z,7.60
2022-10-09T20:21:57.127Z,7.20
2022-10-09T20:24:28.947Z,8.70
2022-10-09T20:27:00.678Z,7.97
2022-10-09T20:29:32.434Z,7.27
2022-10-09T20:32:04.182Z,7.43
2022-10-09T20:34:35.826Z,8.23
2022-10-09T20:37:07.659Z,7.97
2022-10-09T20:39:39.368Z,7.57
2022-10-09T20:42:11.204Z,7.13
2022-10-09T20:44:43.051Z,7.23
2022-10-09T20:47:14.854Z,7.40
2022-10-09T20:49:47.996Z,7.15
2022-10-09T20:52:19.798Z,7.70
2022-10-09T20:54:51.576Z,7.40
2022-10-09T20:57:23.310Z,7.83
2022-10-09T20:59:55.163Z,8.13
2022-10-09T21:02:26.818Z,7.90
2022-10-09T21:04:58.501Z,7.10
2022-10-09T21:07:31.807Z,7.63
2022-10-09T21:10:03.835Z,7.30
2022-10-09T21:12:35.822Z,7.97
2022-10-09T21:15:07.834Z,7.13
2022-10-09T21:17:39.632Z,7.50
2022-10-09T21:20:12.316Z,8.43
2022-10-09T21:22:44.001Z,8.20
2022-10-09T21:25:15.820Z,7.43
2022-10-09T21:27:47.502Z,7.67
2022-10-09T21:30:19.243Z,7.93
2022-10-09T21:32:51.616Z,7.33
2022-10-09T21:35:23.765Z,7.40
2022-10-09T21:37:55.442Z,8.20
2022-10-09T21:40:27.116Z,7.83
2022-10-09T21:42:58.905Z,7.68
2022-10-09T21:45:30.650Z,7.60
2022-10-09T21:48:02.501Z,7.43
2022-10-09T21:50:36.367Z,7.10
2022-10-09T21:53:08.212Z,7.13
2022-10-09T21:55:39.975Z,6.37
2022-10-09T21:58:11.691Z,8.20
2022-10-09T22:00:43.366Z,8.27
2022-10-09T22:03:15.104Z,6.97
2022-10-09T22:05:46.747Z,7.63
2022-10-09T22:08:18.582Z,7.93
2022-10-09T22:10:51.339Z,6.93
2022-10-09T22:13:23.125Z,8.90
2022-10-09T22:15:54.875Z,9.30
2022-10-09T22:18:26.608Z,9.40
2022-10-09T22:21:03.969Z,8.60
2022-10-09T22:23:36.527Z,8.90
2022-10-09T22:26:13.265Z,7.40
2022-10-09T22:28:46.262Z,9.33
2022-10-09T22:31:21.151Z,7.83
2022-10-09T22:34:01.113Z,8.30
2022-10-09T22:36:34.169Z,7.77
2022-10-09T22:39:06.895Z,7.60
2022-10-09T22:41:39.239Z,7.30
2022-10-09T22:44:11.819Z,7.73
2022-10-09T22:46:44.356Z,8.10
2022-10-09T22:49:16.819Z,8.57
2022-10-09T22:51:48.522Z,7.50
2022-10-09T22:54:20.302Z,8.33
2022-10-09T22:56:51.970Z,7.70
2022-10-09T22:59:23.729Z,8.13
2022-10-09T23:01:57.783Z,7.53
2022-10-09T23:04:29.564Z,8.50
2022-10-09T23:07:01.627Z,8.30
2022-10-09T23:09:33.378Z,6.93
2022-10-09T23:12:05.122Z,7.90
2022-10-09T23:14:36.827Z,7.87
2022-10-09T23:17:08.583Z,7.57
2022-10-09T23:19:40.314Z,8.63
2022-10-09T23:22:11.973Z,7.57
2022-10-09T23:24:43.747Z,8.80
2022-10-09T23:27:15.523Z,8.43
2022-10-09T23:29:47.395Z,8.50
2022-10-09T23:32:19.101Z,8.27
2022-10-09T23:34:50.816Z,8.77
2022-10-09T23:37:22.563Z,8.00
2022-10-09T23:39:54.334Z,9.03
2022-10-09T23:42:26.006Z,9.13
2022-10-09T23:44:57.768Z,8.33
2022-10-09T23:47:29.504Z,8.50
2022-10-09T23:50:01.318Z,8.20
2022-10-09T23:52:33.675Z,8.20
2022-10-09T23:55:05.815Z,8.73
2022-10-09T23:57:37.602Z,8.30
